JBU217 KTUL-KLAX
Flight info
| Callsign | JBU217 |
|---|---|
| Flight time | N/A |
| Altitude | 36000 |
| Route | YARNS IRW J6 DRK HIPPI GABBL HLYWD1 |
| Aircraft | A320/M-SDE3FGHIRWY/LB1 |
Departure
| Time | 2026-05-06 23:28 |
|---|---|
| Airport | Tulsa International Airport (KTUL) |
Arrival
| Time | N/A |
|---|---|
| Airport | Los Angeles International Airport (KLAX) |
| Time | Latitude | Longitude | Altitude | Speed | Heading |
|---|---|---|---|---|---|
| 2026-05-06 22:58 | 36.19119 | -95.88757 | 657 ft | 0 kts | 152° |
| 2026-05-06 23:16 | 36.19120 | -95.88758 | 657 ft | 2 kts | 152° |
| 2026-05-06 23:16 | 36.19142 | -95.88773 | 656 ft | 4 kts | 152° |
| 2026-05-06 23:16 | 36.19166 | -95.88788 | 659 ft | 4 kts | 152° |
| 2026-05-06 23:17 | 36.19173 | -95.88792 | 658 ft | 0 kts | 152° |
| 2026-05-06 23:20 | 36.19172 | -95.88790 | 658 ft | 0 kts | 136° |
| 2026-05-06 23:21 | 36.19172 | -95.88789 | 658 ft | 0 kts | 127° |
| 2026-05-06 23:21 | 36.19173 | -95.88786 | 657 ft | 0 kts | 98° |
| 2026-05-06 23:22 | 36.19175 | -95.88784 | 661 ft | 1 kts | 66° |
| 2026-05-06 23:22 | 36.19184 | -95.88777 | 659 ft | 5 kts | 35° |
| 2026-05-06 23:22 | 36.19226 | -95.88742 | 659 ft | 9 kts | 33° |
| 2026-05-06 23:22 | 36.19280 | -95.88690 | 657 ft | 11 kts | 51° |
| 2026-05-06 23:23 | 36.19275 | -95.88599 | 655 ft | 13 kts | 125° |
| 2026-05-06 23:23 | 36.19199 | -95.88514 | 652 ft | 16 kts | 149° |
| 2026-05-06 23:23 | 36.19116 | -95.88472 | 653 ft | 10 kts | 165° |
| 2026-05-06 23:23 | 36.19053 | -95.88495 | 655 ft | 10 kts | 217° |
| 2026-05-06 23:24 | 36.18993 | -95.88532 | 656 ft | 10 kts | 186° |
| 2026-05-06 23:24 | 36.18924 | -95.88539 | 657 ft | 10 kts | 184° |
| 2026-05-06 23:24 | 36.18857 | -95.88543 | 659 ft | 9 kts | 182° |
| 2026-05-06 23:24 | 36.18795 | -95.88546 | 660 ft | 9 kts | 181° |
| 2026-05-06 23:25 | 36.18739 | -95.88548 | 662 ft | 7 kts | 181° |
| 2026-05-06 23:25 | 36.18689 | -95.88540 | 663 ft | 7 kts | 148° |
| 2026-05-06 23:25 | 36.18675 | -95.88487 | 665 ft | 7 kts | 95° |
| 2026-05-06 23:25 | 36.18673 | -95.88430 | 666 ft | 4 kts | 93° |
| 2026-05-06 23:26 | 36.18673 | -95.88428 | 666 ft | 0 kts | 93° |
| 2026-05-06 23:26 | 36.18672 | -95.88421 | 666 ft | 3 kts | 93° |
| 2026-05-06 23:26 | 36.18670 | -95.88377 | 666 ft | 7 kts | 93° |
| 2026-05-06 23:27 | 36.18681 | -95.88315 | 665 ft | 9 kts | 38° |
| 2026-05-06 23:27 | 36.18736 | -95.88309 | 662 ft | 7 kts | 2° |
| 2026-05-06 23:27 | 36.18875 | -95.88298 | 658 ft | 49 kts | 4° |
| 2026-05-06 23:27 | 36.19440 | -95.88262 | 652 ft | 110 kts | 3° |
| 2026-05-06 23:28 | 36.20368 | -95.88202 | 645 ft | 155 kts | 3° |
| 2026-05-06 23:28 | 36.21468 | -95.88153 | 1154 ft | 156 kts | 5° |
| 2026-05-06 23:28 | 36.22551 | -95.88151 | 1846 ft | 156 kts | 3° |
| 2026-05-06 23:28 | 36.23711 | -95.88166 | 2140 ft | 177 kts | 2° |
| 2026-05-06 23:29 | 36.25019 | -95.88184 | 2366 ft | 199 kts | 1° |
| 2026-05-06 23:29 | 36.26486 | -95.88206 | 2624 ft | 223 kts | 2° |
| 2026-05-06 23:29 | 36.28102 | -95.88461 | 3041 ft | 246 kts | 342° |
| 2026-05-06 23:29 | 36.29523 | -95.89733 | 3746 ft | 262 kts | 309° |
| 2026-05-06 23:30 | 36.30178 | -95.91861 | 4568 ft | 274 kts | 275° |
| 2026-05-06 23:30 | 36.29858 | -95.94217 | 5393 ft | 281 kts | 255° |
| 2026-05-06 23:30 | 36.29227 | -95.96513 | 6320 ft | 281 kts | 251° |
| 2026-05-06 23:30 | 36.28538 | -95.98759 | 7292 ft | 275 kts | 249° |
| 2026-05-06 23:31 | 36.27850 | -96.00945 | 8296 ft | 270 kts | 250° |
| 2026-05-06 23:31 | 36.27189 | -96.03072 | 9217 ft | 267 kts | 251° |
| 2026-05-06 23:31 | 36.26537 | -96.05210 | 10150 ft | 263 kts | 251° |
| 2026-05-06 23:31 | 36.25879 | -96.07409 | 10460 ft | 283 kts | 251° |
| 2026-05-06 23:32 | 36.25179 | -96.09776 | 10757 ft | 298 kts | 251° |
| 2026-05-06 23:32 | 36.24463 | -96.12200 | 11411 ft | 301 kts | 251° |
| 2026-05-06 23:32 | 36.23742 | -96.14639 | 12132 ft | 302 kts | 250° |
| 2026-05-06 23:32 | 36.23021 | -96.17087 | 12852 ft | 303 kts | 250° |
| 2026-05-06 23:33 | 36.22299 | -96.19548 | 13573 ft | 304 kts | 250° |
| 2026-05-06 23:33 | 36.21575 | -96.22009 | 14271 ft | 304 kts | 250° |
| 2026-05-06 23:33 | 36.20848 | -96.24473 | 14925 ft | 304 kts | 250° |
| 2026-05-06 23:33 | 36.20125 | -96.26930 | 15582 ft | 304 kts | 250° |
| 2026-05-06 23:34 | 36.19403 | -96.29388 | 16226 ft | 303 kts | 250° |
| 2026-05-06 23:34 | 36.18678 | -96.31837 | 16890 ft | 303 kts | 250° |
| 2026-05-06 23:34 | 36.17952 | -96.34286 | 17551 ft | 303 kts | 250° |
| 2026-05-06 23:34 | 36.17227 | -96.36734 | 18223 ft | 303 kts | 250° |
| 2026-05-06 23:35 | 36.16499 | -96.39182 | 18817 ft | 303 kts | 250° |
| 2026-05-06 23:35 | 36.15768 | -96.41640 | 19407 ft | 304 kts | 250° |
| 2026-05-06 23:35 | 36.15040 | -96.44088 | 20007 ft | 304 kts | 250° |
| 2026-05-06 23:35 | 36.14310 | -96.46548 | 20615 ft | 304 kts | 250° |
| 2026-05-06 23:36 | 36.13582 | -96.49004 | 21213 ft | 304 kts | 250° |
| 2026-05-06 23:36 | 36.12851 | -96.51463 | 21787 ft | 305 kts | 250° |
| 2026-05-06 23:36 | 36.12115 | -96.53925 | 22346 ft | 305 kts | 250° |
| 2026-05-06 23:36 | 36.11376 | -96.56391 | 22904 ft | 306 kts | 250° |
| 2026-05-06 23:37 | 36.10636 | -96.58862 | 23451 ft | 307 kts | 250° |
| 2026-05-06 23:37 | 36.09895 | -96.61338 | 23921 ft | 308 kts | 250° |
| 2026-05-06 23:37 | 36.09163 | -96.63792 | 24338 ft | 308 kts | 250° |
| 2026-05-06 23:37 | 36.08418 | -96.66284 | 24769 ft | 309 kts | 249° |
| 2026-05-06 23:38 | 36.07455 | -96.68666 | 25160 ft | 312 kts | 239° |
| 2026-05-06 23:38 | 36.06055 | -96.70751 | 25531 ft | 318 kts | 232° |
| 2026-05-06 23:38 | 36.04526 | -96.72735 | 25882 ft | 320 kts | 232° |
| 2026-05-06 23:38 | 36.02985 | -96.74734 | 26259 ft | 321 kts | 232° |
| 2026-05-06 23:39 | 36.01441 | -96.76737 | 26628 ft | 323 kts | 232° |
| 2026-05-06 23:39 | 35.99889 | -96.78751 | 26982 ft | 324 kts | 232° |
| 2026-05-06 23:39 | 35.98330 | -96.80774 | 27351 ft | 326 kts | 232° |
| 2026-05-06 23:39 | 35.96765 | -96.82803 | 27711 ft | 327 kts | 232° |
| 2026-05-06 23:40 | 35.95195 | -96.84840 | 28074 ft | 328 kts | 232° |
| 2026-05-06 23:40 | 35.93616 | -96.86891 | 28428 ft | 330 kts | 232° |
| 2026-05-06 23:40 | 35.92034 | -96.88946 | 28779 ft | 331 kts | 232° |
| 2026-05-06 23:40 | 35.90440 | -96.91012 | 29130 ft | 333 kts | 232° |
| 2026-05-06 23:41 | 35.88837 | -96.93081 | 29480 ft | 334 kts | 232° |
| 2026-05-06 23:41 | 35.87225 | -96.95158 | 29809 ft | 336 kts | 232° |
| 2026-05-06 23:41 | 35.85606 | -96.97244 | 30165 ft | 337 kts | 232° |
| 2026-05-06 23:41 | 35.83989 | -96.99328 | 30571 ft | 335 kts | 232° |
| 2026-05-06 23:42 | 35.82386 | -97.01394 | 31013 ft | 332 kts | 232° |
| 2026-05-06 23:42 | 35.80798 | -97.03442 | 31440 ft | 329 kts | 232° |
| 2026-05-06 23:42 | 35.79223 | -97.05477 | 31878 ft | 327 kts | 232° |
| 2026-05-06 23:42 | 35.77658 | -97.07493 | 32314 ft | 324 kts | 232° |
| 2026-05-06 23:43 | 35.76104 | -97.09492 | 32761 ft | 322 kts | 232° |
| 2026-05-06 23:43 | 35.74561 | -97.11476 | 33205 ft | 319 kts | 232° |
| 2026-05-06 23:43 | 35.73032 | -97.13445 | 33657 ft | 317 kts | 232° |
| 2026-05-06 23:43 | 35.71515 | -97.15397 | 34091 ft | 314 kts | 232° |
| 2026-05-06 23:44 | 35.70009 | -97.17330 | 34450 ft | 312 kts | 232° |
| 2026-05-06 23:44 | 35.68512 | -97.19257 | 34765 ft | 311 kts | 233° |
| 2026-05-06 23:44 | 35.67020 | -97.21178 | 35063 ft | 310 kts | 233° |
| 2026-05-06 23:44 | 35.65531 | -97.23093 | 35363 ft | 309 kts | 233° |
| 2026-05-06 23:45 | 35.64049 | -97.24995 | 35654 ft | 308 kts | 233° |
| 2026-05-06 23:45 | 35.62568 | -97.26891 | 35925 ft | 307 kts | 233° |
| 2026-05-06 23:45 | 35.61089 | -97.28783 | 36045 ft | 307 kts | 233° |
| 2026-05-06 23:46 | 35.58110 | -97.32595 | 36070 ft | 310 kts | 233° |
| 2026-05-06 23:46 | 35.55124 | -97.36414 | 36072 ft | 310 kts | 233° |
| 2026-05-06 23:47 | 35.52146 | -97.40214 | 36026 ft | 311 kts | 232° |
| 2026-05-06 23:47 | 35.49137 | -97.44046 | 36070 ft | 312 kts | 232° |
| 2026-05-06 23:48 | 35.46118 | -97.47881 | 36072 ft | 313 kts | 232° |
| 2026-05-06 23:48 | 35.43097 | -97.51720 | 36092 ft | 313 kts | 232° |
| 2026-05-06 23:49 | 35.40069 | -97.55562 | 36091 ft | 313 kts | 232° |
| 2026-05-06 23:49 | 35.37161 | -97.59500 | 36103 ft | 308 kts | 241° |
| 2026-05-06 23:50 | 35.35826 | -97.64408 | 36106 ft | 311 kts | 262° |
| 2026-05-06 23:50 | 35.35707 | -97.72394 | 36099 ft | 313 kts | 262° |
| 2026-05-06 23:51 | 35.35629 | -97.77738 | 36094 ft | 314 kts | 262° |
| 2026-05-06 23:51 | 35.35547 | -97.83046 | 36096 ft | 314 kts | 262° |
| 2026-05-06 23:52 | 35.35464 | -97.88397 | 36094 ft | 314 kts | 262° |
| 2026-05-06 23:52 | 35.35381 | -97.93745 | 36119 ft | 314 kts | 262° |
| 2026-05-06 23:53 | 35.35295 | -97.99103 | 36132 ft | 314 kts | 262° |
| 2026-05-06 23:53 | 35.35205 | -98.04457 | 36132 ft | 314 kts | 262° |
| 2026-05-06 23:54 | 35.35109 | -98.09817 | 36114 ft | 315 kts | 262° |
| 2026-05-06 23:54 | 35.35015 | -98.15175 | 36108 ft | 315 kts | 262° |
| 2026-05-06 23:55 | 35.34919 | -98.20538 | 36106 ft | 315 kts | 262° |
| 2026-05-06 23:55 | 35.34820 | -98.25905 | 36099 ft | 315 kts | 262° |
| 2026-05-06 23:56 | 35.34721 | -98.31269 | 36096 ft | 315 kts | 262° |
| 2026-05-06 23:56 | 35.34624 | -98.36599 | 36092 ft | 315 kts | 262° |
| 2026-05-06 23:57 | 35.34520 | -98.41999 | 36083 ft | 315 kts | 262° |
| 2026-05-06 23:57 | 35.34412 | -98.47334 | 36100 ft | 316 kts | 262° |
| 2026-05-06 23:58 | 35.34293 | -98.52712 | 36103 ft | 316 kts | 262° |
| 2026-05-06 23:58 | 35.34176 | -98.58087 | 36108 ft | 316 kts | 262° |
| 2026-05-06 23:59 | 35.34067 | -98.63466 | 36108 ft | 316 kts | 262° |
| 2026-05-06 23:59 | 35.33951 | -98.68841 | 36107 ft | 316 kts | 262° |
| 2026-05-07 00:00 | 35.33825 | -98.74213 | 36125 ft | 316 kts | 262° |
| 2026-05-07 00:00 | 35.33723 | -98.78679 | 36118 ft | 316 kts | 262° |
| 2026-05-07 00:01 | 35.33579 | -98.84956 | 36094 ft | 315 kts | 262° |
| 2026-05-07 00:01 | 35.33456 | -98.90327 | 36090 ft | 315 kts | 262° |
| 2026-05-07 00:02 | 35.33326 | -98.95698 | 36106 ft | 315 kts | 262° |
| 2026-05-07 00:02 | 35.33190 | -99.01066 | 36111 ft | 315 kts | 262° |
| 2026-05-07 00:03 | 35.33055 | -99.06429 | 36114 ft | 315 kts | 262° |
| 2026-05-07 00:03 | 35.32918 | -99.11760 | 36125 ft | 315 kts | 262° |
| 2026-05-07 00:04 | 35.32779 | -99.17123 | 36124 ft | 315 kts | 262° |
| 2026-05-07 00:04 | 35.32635 | -99.22494 | 36120 ft | 315 kts | 262° |
| 2026-05-07 00:05 | 35.32492 | -99.27857 | 36118 ft | 315 kts | 262° |
| 2026-05-07 00:05 | 35.32345 | -99.33222 | 36114 ft | 315 kts | 262° |
| 2026-05-07 00:06 | 35.32192 | -99.38585 | 36094 ft | 315 kts | 262° |
| 2026-05-07 00:06 | 35.32039 | -99.43945 | 36094 ft | 315 kts | 262° |
| 2026-05-07 00:07 | 35.31889 | -99.49304 | 36112 ft | 315 kts | 262° |
| 2026-05-07 00:07 | 35.31734 | -99.54675 | 36105 ft | 315 kts | 261° |
| 2026-05-07 00:08 | 35.31571 | -99.60044 | 36100 ft | 316 kts | 261° |
| 2026-05-07 00:08 | 35.31411 | -99.65389 | 36098 ft | 316 kts | 261° |
| 2026-05-07 00:09 | 35.31248 | -99.70759 | 36095 ft | 316 kts | 261° |
| 2026-05-07 00:09 | 35.31080 | -99.76128 | 36095 ft | 316 kts | 261° |
| 2026-05-07 00:10 | 35.30942 | -99.80630 | 36094 ft | 316 kts | 261° |
| 2026-05-07 00:10 | 35.30772 | -99.86000 | 36104 ft | 316 kts | 261° |
| 2026-05-07 00:11 | 35.30602 | -99.91338 | 36100 ft | 316 kts | 261° |
| 2026-05-07 00:11 | 35.30430 | -99.96710 | 36097 ft | 316 kts | 261° |
| 2026-05-07 00:12 | 35.30252 | -100.02084 | 36091 ft | 316 kts | 261° |
| 2026-05-07 00:12 | 35.30072 | -100.07459 | 36090 ft | 316 kts | 261° |
| 2026-05-07 00:13 | 35.29892 | -100.12845 | 36088 ft | 316 kts | 261° |
| 2026-05-07 00:13 | 35.29708 | -100.18222 | 36085 ft | 316 kts | 261° |
| 2026-05-07 00:14 | 35.29517 | -100.23609 | 36067 ft | 317 kts | 261° |
| 2026-05-07 00:14 | 35.29326 | -100.29019 | 36057 ft | 319 kts | 261° |
| 2026-05-07 00:15 | 35.29128 | -100.34450 | 36057 ft | 319 kts | 261° |
| 2026-05-07 00:15 | 35.28934 | -100.39886 | 36058 ft | 320 kts | 261° |
| 2026-05-07 00:16 | 35.28734 | -100.45327 | 36061 ft | 320 kts | 261° |
| 2026-05-07 00:16 | 35.28528 | -100.50774 | 36065 ft | 321 kts | 261° |
| 2026-05-07 00:17 | 35.28326 | -100.56234 | 36068 ft | 321 kts | 261° |
| 2026-05-07 00:17 | 35.28125 | -100.61665 | 36037 ft | 322 kts | 261° |
| 2026-05-07 00:18 | 35.27913 | -100.67164 | 36039 ft | 324 kts | 261° |
| 2026-05-07 00:18 | 35.27695 | -100.72684 | 36120 ft | 325 kts | 262° |
| 2026-05-07 00:19 | 35.27482 | -100.78167 | 36078 ft | 322 kts | 262° |
| 2026-05-07 00:19 | 35.27265 | -100.83639 | 36070 ft | 322 kts | 261° |
| 2026-05-07 00:20 | 35.27043 | -100.89121 | 36069 ft | 323 kts | 261° |
| 2026-05-07 00:20 | 35.26825 | -100.94611 | 36074 ft | 323 kts | 261° |
| 2026-05-07 00:21 | 35.26600 | -101.00100 | 36077 ft | 323 kts | 261° |
| 2026-05-07 00:21 | 35.26368 | -101.05596 | 36071 ft | 323 kts | 261° |
| 2026-05-07 00:22 | 35.26131 | -101.11087 | 36074 ft | 323 kts | 261° |
| 2026-05-07 00:22 | 35.25897 | -101.16583 | 36073 ft | 323 kts | 261° |
| 2026-05-07 00:23 | 35.25663 | -101.22077 | 36076 ft | 323 kts | 261° |
| 2026-05-07 00:23 | 35.25422 | -101.27572 | 36078 ft | 323 kts | 261° |
| 2026-05-07 00:24 | 35.25183 | -101.33039 | 36084 ft | 324 kts | 262° |
| 2026-05-07 00:24 | 35.24944 | -101.38544 | 36084 ft | 324 kts | 262° |
| 2026-05-07 00:25 | 35.24703 | -101.44056 | 36094 ft | 325 kts | 262° |
| 2026-05-07 00:25 | 35.24449 | -101.49573 | 36096 ft | 325 kts | 262° |
| 2026-05-07 00:26 | 35.24190 | -101.55097 | 36104 ft | 325 kts | 262° |
| 2026-05-07 00:26 | 35.23941 | -101.60615 | 36111 ft | 325 kts | 262° |
| 2026-05-07 00:27 | 35.23687 | -101.66135 | 36106 ft | 325 kts | 262° |
| 2026-05-07 00:27 | 35.23434 | -101.71652 | 36122 ft | 325 kts | 263° |
| 2026-05-07 00:28 | 35.23312 | -101.77193 | 36117 ft | 326 kts | 264° |
| 2026-05-07 00:28 | 35.23230 | -101.82704 | 36113 ft | 326 kts | 264° |
| 2026-05-07 00:29 | 35.23124 | -101.88251 | 36108 ft | 326 kts | 263° |
| 2026-05-07 00:30 | 35.22881 | -101.99347 | 36092 ft | 326 kts | 263° |
| 2026-05-07 00:30 | 35.22756 | -102.04891 | 36098 ft | 326 kts | 263° |
| 2026-05-07 00:31 | 35.22629 | -102.10428 | 36087 ft | 326 kts | 263° |
| 2026-05-07 00:31 | 35.22498 | -102.15972 | 36078 ft | 326 kts | 263° |
| 2026-05-07 00:32 | 35.22367 | -102.21509 | 36070 ft | 326 kts | 264° |
| 2026-05-07 00:32 | 35.22234 | -102.27044 | 36070 ft | 326 kts | 263° |
| 2026-05-07 00:33 | 35.22095 | -102.32579 | 36070 ft | 325 kts | 263° |
| 2026-05-07 00:33 | 35.21951 | -102.38076 | 36078 ft | 325 kts | 263° |
| 2026-05-07 00:34 | 35.21806 | -102.43606 | 36081 ft | 324 kts | 263° |
| 2026-05-07 00:34 | 35.21664 | -102.49110 | 36066 ft | 324 kts | 263° |
| 2026-05-07 00:35 | 35.21519 | -102.54615 | 36064 ft | 324 kts | 263° |
| 2026-05-07 00:35 | 35.21370 | -102.60124 | 36064 ft | 324 kts | 263° |
| 2026-05-07 00:36 | 35.21216 | -102.65643 | 36055 ft | 325 kts | 263° |
| 2026-05-07 00:36 | 35.21058 | -102.71167 | 36056 ft | 325 kts | 263° |
| 2026-05-07 00:37 | 35.20896 | -102.76686 | 36055 ft | 325 kts | 263° |
| 2026-05-07 00:37 | 35.20737 | -102.82206 | 36063 ft | 325 kts | 263° |
| 2026-05-07 00:38 | 35.20577 | -102.87734 | 36062 ft | 325 kts | 263° |
| 2026-05-07 00:38 | 35.20413 | -102.93265 | 36045 ft | 325 kts | 263° |
| 2026-05-07 00:39 | 35.20245 | -102.98790 | 36043 ft | 325 kts | 263° |
| 2026-05-07 00:39 | 35.20072 | -103.04315 | 36041 ft | 325 kts | 263° |
| 2026-05-07 00:40 | 35.19899 | -103.09837 | 36023 ft | 325 kts | 263° |
| 2026-05-07 00:40 | 35.19725 | -103.15366 | 36021 ft | 326 kts | 263° |
| 2026-05-07 00:41 | 35.19546 | -103.20878 | 36009 ft | 327 kts | 263° |
| 2026-05-07 00:41 | 35.19364 | -103.26444 | 36011 ft | 328 kts | 263° |
| 2026-05-07 00:42 | 35.19180 | -103.32013 | 36019 ft | 328 kts | 263° |
| 2026-05-07 00:42 | 35.18994 | -103.37586 | 36021 ft | 328 kts | 263° |
| 2026-05-07 00:43 | 35.18802 | -103.43167 | 36030 ft | 329 kts | 263° |
| 2026-05-07 00:43 | 35.18608 | -103.48754 | 36040 ft | 329 kts | 263° |
| 2026-05-07 00:44 | 35.18411 | -103.54343 | 36022 ft | 330 kts | 263° |
| 2026-05-07 00:44 | 35.18212 | -103.59958 | 36022 ft | 331 kts | 263° |
| 2026-05-07 00:45 | 35.18037 | -103.65599 | 36023 ft | 332 kts | 263° |
| 2026-05-07 00:45 | 35.17871 | -103.71247 | 36027 ft | 332 kts | 263° |
| 2026-05-07 00:46 | 35.17692 | -103.76894 | 36028 ft | 333 kts | 263° |
| 2026-05-07 00:46 | 35.17518 | -103.82546 | 36029 ft | 333 kts | 263° |
| 2026-05-07 00:47 | 35.17343 | -103.88171 | 36018 ft | 334 kts | 263° |
| 2026-05-07 00:47 | 35.17158 | -103.93860 | 36008 ft | 336 kts | 263° |
| 2026-05-07 00:48 | 35.16970 | -103.99587 | 36007 ft | 338 kts | 263° |
| 2026-05-07 00:48 | 35.16785 | -104.05326 | 36008 ft | 338 kts | 263° |